Time;durP1;ratioP1;P1;durP2;ratioP2;P2;SDS_P1;SDS_P2;PMS_P1;PMS_P2;Temp;Humidity;BMP_temperature;BMP_pressure;BME280_temperature;BME280_humidity;BME280_pressure;Samples;Min_cycle;Max_cycle;Signal;HPM_P1;HPM_P2
2022/05/04 00:00:09;;;;;;;206.57;17.05;;;2.50;99.90;;;;;;5030986;28;20455;-80
2022/05/04 00:02:40;;;;;;;571.45;60.38;;;2.50;99.90;;;;;;5031739;28;20409;-78
2022/05/04 00:05:08;;;;;;;420.88;43.42;;;2.40;99.90;;;;;;5044727;28;20393;-79
2022/05/04 00:07:36;;;;;;;109.28;12.15;;;2.30;99.90;;;;;;5038832;28;20802;-79
2022/05/04 00:10:05;;;;;;;312.33;23.42;;;2.30;99.90;;;;;;5039783;28;20400;-79
2022/05/04 00:12:34;;;;;;;261.63;26.23;;;2.30;99.90;;;;;;5065749;28;20457;-79
2022/05/04 00:15:02;;;;;;;430.63;38.92;;;2.40;99.90;;;;;;5034403;28;20521;-79
2022/05/04 00:17:29;;;;;;;160.30;14.30;;;2.30;99.90;;;;;;5034144;28;20393;-78
2022/05/04 00:19:57;;;;;;;744.45;82.72;;;2.30;99.90;;;;;;5052101;28;20388;-79
2022/05/04 00:22:26;;;;;;;124.85;13.30;;;2.30;99.90;;;;;;5048274;28;20389;-79
2022/05/04 00:24:54;;;;;;;581.03;66.75;;;2.30;99.90;;;;;;5049616;28;20393;-79
2022/05/04 00:27:21;;;;;;;421.23;43.42;;;2.20;99.90;;;;;;5034627;28;20451;-79
2022/05/04 00:29:49;;;;;;;280.10;29.10;;;2.20;99.90;;;;;;5049563;28;20405;-79
2022/05/04 00:32:19;;;;;;;536.27;58.10;;;2.10;99.90;;;;;;5034597;28;20399;-79
2022/05/04 00:34:47;;;;;;;190.85;18.70;;;2.10;99.90;;;;;;5034455;28;20516;-79
2022/05/04 00:37:14;;;;;;;399.60;38.80;;;2.10;99.90;;;;;;5036701;28;20385;-79
2022/05/04 00:39:42;;;;;;;290.55;34.70;;;2.10;99.90;;;;;;5034321;28;20393;-79
2022/05/04 00:42:15;;;;;;;341.00;37.70;;;2.10;99.90;;;;;;5032920;28;20764;-79
2022/05/04 00:44:47;;;;;;;167.63;17.95;;;2.00;99.90;;;;;;5034199;28;20900;-79
2022/05/04 00:47:15;;;;;;;354.17;43.10;;;2.00;99.90;;;;;;5032947;28;20472;-79
2022/05/04 00:49:46;;;;;;;667.38;70.72;;;2.00;99.90;;;;;;5041971;28;20427;-78
2022/05/04 00:52:16;;;;;;;392.20;40.85;;;2.00;99.90;;;;;;5053140;28;20384;-79
2022/05/04 00:54:46;;;;;;;277.52;26.40;;;2.00;99.90;;;;;;5049217;28;20433;-79
2022/05/04 00:57:15;;;;;;;380.02;46.20;;;2.00;99.90;;;;;;5032789;28;20385;-80
2022/05/04 00:59:42;;;;;;;290.05;26.23;;;1.90;99.90;;;;;;5034083;28;20389;-79
2022/05/04 01:02:10;;;;;;;330.92;32.40;;;2.00;99.90;;;;;;5048861;28;20393;-79
2022/05/04 01:04:38;;;;;;;681.72;82.65;;;1.90;99.90;;;;;;5035809;28;20413;-79
2022/05/04 01:07:05;;;;;;;60.53;6.95;;;1.80;99.90;;;;;;5053471;28;20482;-79
2022/05/04 01:09:33;;;;;;;276.85;32.50;;;1.90;99.90;;;;;;5044372;28;20440;-79
2022/05/04 01:12:00;;;;;;;466.48;54.33;;;1.90;99.90;;;;;;5033729;28;20393;-79
2022/05/04 01:14:28;;;;;;;466.75;47.30;;;1.90;99.90;;;;;;5033971;28;20443;-79
2022/05/04 01:16:55;;;;;;;351.17;33.53;;;1.90;99.90;;;;;;5035064;28;20400;-80
2022/05/04 01:19:23;;;;;;;399.27;42.80;;;1.80;99.90;;;;;;5040817;28;20455;-79
2022/05/04 01:21:50;;;;;;;229.85;19.48;;;1.80;99.90;;;;;;5036143;28;20391;-79
2022/05/04 01:24:18;;;;;;;276.77;31.40;;;1.80;99.90;;;;;;5036970;28;20950;-79
2022/05/04 01:26:45;;;;;;;836.10;97.65;;;1.80;99.90;;;;;;5040092;28;20397;-79
2022/05/04 01:29:14;;;;;;;323.88;34.97;;;1.80;99.90;;;;;;5050480;28;20411;-79
2022/05/04 01:31:42;;;;;;;652.20;85.30;;;1.80;99.90;;;;;;5035669;28;20397;-79
2022/05/04 01:34:10;;;;;;;304.05;33.42;;;1.80;99.90;;;;;;5033332;28;20420;-79
2022/05/04 01:36:40;;;;;;;896.50;105.38;;;1.80;99.90;;;;;;5038248;28;20443;-79
2022/05/04 01:39:08;;;;;;;339.25;33.88;;;1.80;99.90;;;;;;5040293;28;20848;-80
2022/05/04 01:44:21;;;;;;;345.93;38.20;;;1.70;99.90;;;;;;5033276;28;20476;-79
2022/05/04 01:46:48;;;;;;;753.78;74.15;;;1.70;99.90;;;;;;5360368;23;21236;-81
2022/05/04 01:49:16;;;;;;;542.38;57.58;;;1.60;99.90;;;;;;5071220;28;20859;-81
2022/05/04 01:51:43;;;;;;;585.30;63.13;;;1.60;99.90;;;;;;5055067;28;20804;-81
2022/05/04 01:54:11;;;;;;;742.77;75.80;;;1.60;99.90;;;;;;5072206;28;20393;-81
2022/05/04 01:56:38;;;;;;;270.05;24.17;;;1.50;99.90;;;;;;5072651;28;20482;-80
2022/05/04 01:59:06;;;;;;;452.25;49.17;;;1.60;99.90;;;;;;5072204;28;20390;-80
2022/05/04 02:01:34;;;;;;;420.23;74.57;;;1.60;99.90;;;;;;5054955;28;20378;-80
2022/05/04 02:04:03;;;;;;;217.90;20.70;;;1.50;99.90;;;;;;5072085;28;20426;-80
2022/05/04 02:06:32;;;;;;;374.17;40.07;;;1.50;99.90;;;;;;5049522;28;20426;-80
2022/05/04 02:08:59;;;;;;;213.68;22.10;;;1.60;99.90;;;;;;5068369;28;20396;-81
2022/05/04 02:11:28;;;;;;;281.02;24.08;;;1.60;99.90;;;;;;5072656;28;20386;-81
2022/05/04 02:13:56;;;;;;;819.90;89.18;;;1.60;99.90;;;;;;5054480;28;20418;-80
2022/05/04 02:16:23;;;;;;;224.93;24.40;;;1.50;99.90;;;;;;5072131;28;20848;-80
2022/05/04 02:18:51;;;;;;;241.75;27.40;;;1.40;99.90;;;;;;5072591;28;20389;-80
2022/05/04 02:21:19;;;;;;;325.00;32.97;;;1.40;99.90;;;;;;5071699;28;20524;-81
2022/05/04 02:23:46;;;;;;;807.58;94.22;;;1.40;99.90;;;;;;5072175;28;20431;-81
2022/05/04 02:26:14;;;;;;;164.73;17.10;;;1.50;99.90;;;;;;5085465;28;20434;-81
2022/05/04 02:28:43;;;;;;;475.40;55.80;;;1.30;99.90;;;;;;5090568;28;20396;-81
2022/05/04 02:31:10;;;;;;;52.45;5.03;;;1.30;99.90;;;;;;5085979;28;20594;-80
2022/05/04 02:33:38;;;;;;;114.13;10.30;;;1.30;99.90;;;;;;5081758;28;20414;-81
2022/05/04 02:38:51;;;;;;;224.02;30.95;;;1.40;99.90;;;;;;5055703;28;20888;-80
2022/05/04 02:41:19;;;;;;;605.60;64.78;;;1.50;99.90;;;;;;5071996;28;20382;-81
2022/05/04 02:43:46;;;;;;;424.33;53.17;;;1.50;99.90;;;;;;5071876;28;20385;-81
2022/05/04 02:46:22;;;;;;;433.30;38.97;;;1.50;99.90;;;;;;5071786;28;20452;-80
2022/05/04 02:48:50;;;;;;;210.25;16.75;;;1.50;99.90;;;;;;5091622;28;20445;-80
2022/05/04 02:51:18;;;;;;;194.18;23.10;;;1.40;99.90;;;;;;5091678;28;20381;-80
2022/05/04 02:53:45;;;;;;;277.33;38.00;;;1.20;99.90;;;;;;5091685;28;20388;-81
2022/05/04 02:56:16;;;;;;;332.30;33.25;;;1.30;99.90;;;;;;5090643;28;20494;-80
2022/05/04 02:58:44;;;;;;;167.50;13.60;;;1.30;99.90;;;;;;5074035;28;20481;-80
2022/05/04 03:04:06;;;;;;;617.28;73.40;;;1.40;99.90;;;;;;5091484;28;20380;-80
2022/05/04 03:06:36;;;;;;;227.50;21.00;;;1.30;99.90;;;;;;5091140;28;20392;-80
2022/05/04 03:13:10;;;;;;;224.13;34.60;;;1.40;99.90;;;;;;5073366;28;20403;-80
2022/05/04 03:15:38;;;;;;;197.30;21.30;;;1.30;99.90;;;;;;5071256;28;20397;-80
2022/05/04 03:18:05;;;;;;;159.60;23.13;;;1.30;99.90;;;;;;5071338;28;20473;-81
2022/05/04 03:20:33;;;;;;;474.10;42.10;;;1.30;99.90;;;;;;5070406;28;20390;-80
2022/05/04 03:23:00;;;;;;;261.40;22.70;;;1.40;99.90;;;;;;5071365;28;20382;-80
2022/05/04 03:25:27;;;;;;;381.23;32.00;;;1.40;99.90;;;;;;5071545;28;20740;-81
2022/05/04 03:27:55;;;;;;;775.47;82.40;;;1.40;99.90;;;;;;5070863;28;20394;-80
2022/05/04 03:30:22;;;;;;;381.50;40.97;;;1.40;99.90;;;;;;5071227;28;20445;-79
2022/05/04 03:32:50;;;;;;;250.13;28.05;;;1.20;99.90;;;;;;5071178;28;20386;-80
2022/05/04 03:35:17;;;;;;;605.47;60.25;;;1.30;99.90;;;;;;5071147;28;20402;-81
2022/05/04 03:37:44;;;;;;;861.58;103.07;;;1.40;99.90;;;;;;5070943;28;20416;-80
2022/05/04 03:40:13;;;;;;;110.20;10.77;;;1.30;99.90;;;;;;5085960;28;20382;-80
2022/05/04 03:42:40;;;;;;;539.70;82.03;;;1.30;99.90;;;;;;5090779;28;20884;-79
2022/05/04 03:45:08;;;;;;;280.50;27.83;;;1.20;99.90;;;;;;5091077;28;20384;-80
2022/05/04 03:47:36;;;;;;;204.48;35.85;;;1.20;99.90;;;;;;5060106;28;20418;-80
2022/05/04 03:50:04;;;;;;;231.88;31.90;;;1.20;99.90;;;;;;5068891;28;20377;-80
2022/05/04 03:52:31;;;;;;;206.05;19.55;;;1.20;99.90;;;;;;5075168;28;20469;-81
2022/05/04 03:54:59;;;;;;;36.35;2.63;;;1.30;99.90;;;;;;5057119;28;20481;-80
2022/05/04 03:57:26;;;;;;;3.85;0.90;;;1.30;99.90;;;;;;5075060;28;20400;-81
2022/05/04 03:59:54;;;;;;;61.38;10.48;;;1.30;99.90;;;;;;5073831;28;20859;-81
2022/05/04 04:02:21;;;;;;;128.63;14.85;;;1.20;99.90;;;;;;5074994;28;20482;-81
2022/05/04 04:04:49;;;;;;;175.20;12.82;;;1.30;99.90;;;;;;5094715;28;20380;-81
2022/05/04 04:07:16;;;;;;;306.13;35.03;;;1.30;99.90;;;;;;5076587;28;20383;-80
2022/05/04 04:09:44;;;;;;;544.90;53.60;;;1.30;99.90;;;;;;5094873;28;20469;-81
2022/05/04 04:12:11;;;;;;;115.30;10.07;;;1.30;99.90;;;;;;5076600;28;20442;-80
2022/05/04 04:14:39;;;;;;;46.83;3.58;;;1.40;99.90;;;;;;5076634;28;21014;-80
2022/05/04 04:17:06;;;;;;;840.75;79.28;;;1.40;99.90;;;;;;5085394;28;20481;-80
2022/05/04 04:19:34;;;;;;;100.53;10.93;;;1.40;99.90;;;;;;5074580;28;20392;-81
2022/05/04 04:22:01;;;;;;;209.90;17.00;;;1.40;99.90;;;;;;5074659;28;20472;-81
2022/05/04 04:24:28;;;;;;;52.33;2.70;;;1.40;99.90;;;;;;5056582;28;20382;-80
2022/05/04 04:26:56;;;;;;;498.20;53.45;;;1.50;99.90;;;;;;5074433;28;20764;-80
2022/05/04 04:29:23;;;;;;;179.35;16.65;;;1.50;99.90;;;;;;5073076;28;20891;-81
2022/05/04 04:31:51;;;;;;;250.55;18.00;;;1.50;99.90;;;;;;5077175;28;20389;-81
2022/05/04 04:34:19;;;;;;;394.48;31.42;;;1.50;99.90;;;;;;5074687;28;20386;-82
2022/05/04 04:36:46;;;;;;;3.88;0.50;;;1.50;99.90;;;;;;5077126;28;20984;-81
2022/05/04 04:39:13;;;;;;;255.50;25.23;;;1.60;99.90;;;;;;5081621;28;20425;-81
2022/05/04 04:41:41;;;;;;;496.60;43.25;;;1.60;99.90;;;;;;5073987;28;20384;-81
2022/05/04 04:44:08;;;;;;;404.33;64.13;;;1.60;99.90;;;;;;5072811;28;20386;-81
2022/05/04 04:46:37;;;;;;;53.25;4.85;;;1.70;99.90;;;;;;5034554;28;20402;-81
2022/05/04 04:49:04;;;;;;;142.10;33.60;;;1.70;99.90;;;;;;5034647;28;20404;-82
2022/05/04 04:51:32;;;;;;;491.83;43.17;;;1.70;99.90;;;;;;5065450;28;20817;-81
2022/05/04 04:53:59;;;;;;;1047.50;91.40;;;1.80;99.90;;;;;;5050248;28;20488;-82
2022/05/04 04:56:26;;;;;;;107.25;10.90;;;1.80;99.90;;;;;;5073674;28;20452;-81
2022/05/04 04:58:54;;;;;;;210.95;20.50;;;1.90;99.90;;;;;;5073903;28;20469;-80
2022/05/04 05:01:21;;;;;;;55.38;3.08;;;1.90;99.90;;;;;;5073788;28;20477;-80
2022/05/04 05:03:49;;;;;;;478.47;63.87;;;1.90;99.90;;;;;;5056348;28;20414;-82
2022/05/04 05:06:19;;;;;;;4.35;0.93;;;2.00;99.90;;;;;;5072519;28;20383;-82
2022/05/04 05:08:48;;;;;;;1080.03;98.07;;;2.00;99.90;;;;;;5069906;28;20433;-81
2022/05/04 05:11:15;;;;;;;579.97;62.30;;;2.10;99.90;;;;;;5087101;28;20392;-81
2022/05/04 05:16:29;;;;;;;994.40;83.05;;;2.20;99.90;;;;;;5075792;28;20418;-81
2022/05/04 05:18:57;;;;;;;457.15;35.28;;;2.30;99.90;;;;;;5077867;28;20734;-81
2022/05/04 05:21:28;;;;;;;1149.10;101.38;;;2.30;99.90;;;;;;5076001;28;20473;-81
2022/05/04 05:23:55;;;;;;;675.75;105.20;;;2.40;99.90;;;;;;5093428;28;20392;-81
2022/05/04 05:26:22;;;;;;;765.67;79.05;;;2.40;99.90;;;;;;5092885;28;20384;-80
2022/05/04 05:28:50;;;;;;;297.10;28.40;;;2.40;99.90;;;;;;5055728;28;20389;-81
2022/05/04 05:31:17;;;;;;;679.60;45.83;;;2.50;99.90;;;;;;5073226;28;20421;-80
2022/05/04 05:33:46;;;;;;;945.47;89.15;;;2.50;99.90;;;;;;5054053;28;20845;-81
2022/05/04 05:36:13;;;;;;;727.28;59.95;;;2.60;99.90;;;;;;5080416;28;20428;-81
2022/05/04 05:38:41;;;;;;;284.52;36.03;;;2.60;99.90;;;;;;5091134;28;21193;-80
2022/05/04 05:41:08;;;;;;;760.15;54.28;;;2.70;99.90;;;;;;5078744;28;20390;-80
2022/05/04 05:43:36;;;;;;;790.27;68.13;;;2.80;99.90;;;;;;5077481;28;20399;-81
2022/05/04 05:46:03;;;;;;;467.55;66.07;;;2.80;99.90;;;;;;5092970;28;20380;-81
2022/05/04 05:48:31;;;;;;;247.07;16.63;;;2.80;99.90;;;;;;5075298;28;20395;-81
2022/05/04 05:51:04;;;;;;;471.45;40.83;;;2.80;99.90;;;;;;5072809;28;20414;-80
2022/05/04 05:53:32;;;;;;;477.35;48.40;;;2.80;99.90;;;;;;5072904;28;20394;-84
2022/05/04 05:55:59;;;;;;;1079.88;106.78;;;2.90;99.90;;;;;;5068042;28;20781;-84
2022/05/04 05:58:26;;;;;;;914.42;84.78;;;2.90;99.90;;;;;;5072733;28;20388;-81
2022/05/04 06:00:54;;;;;;;594.85;73.28;;;3.00;99.90;;;;;;5087460;28;20386;-81
2022/05/04 06:03:22;;;;;;;229.73;16.30;;;3.10;99.90;;;;;;5066073;28;20398;-81
2022/05/04 06:05:49;;;;;;;822.03;67.60;;;3.10;99.90;;;;;;5064022;28;20802;-81
2022/05/04 06:08:17;;;;;;;352.50;47.42;;;3.30;99.90;;;;;;5071713;28;20800;-82
2022/05/04 06:10:44;;;;;;;83.90;8.82;;;3.40;99.90;;;;;;5072206;28;20389;-83
2022/05/04 06:13:12;;;;;;;1235.85;95.28;;;3.30;99.90;;;;;;5072479;28;20879;-81
2022/05/04 06:15:39;;;;;;;1260.63;103.50;;;3.50;99.90;;;;;;5072444;28;20425;-81
2022/05/04 06:18:07;;;;;;;1285.47;68.22;;;3.50;99.90;;;;;;5054285;28;20390;-81
2022/05/04 06:20:35;;;;;;;810.60;81.65;;;3.50;99.90;;;;;;5070783;28;20459;-81
2022/05/04 06:23:02;;;;;;;434.75;35.13;;;3.60;99.90;;;;;;5072313;28;20394;-81
2022/05/04 06:25:30;;;;;;;328.15;31.00;;;3.60;99.90;;;;;;5072618;28;20413;-82
2022/05/04 06:27:58;;;;;;;381.77;25.63;;;3.60;99.90;;;;;;5063067;28;20378;-82
2022/05/04 06:35:57;;;;;;;842.30;87.30;;;3.80;99.90;;;;;;5072106;28;20404;-82
2022/05/04 06:38:24;;;;;;;678.05;54.03;;;3.90;99.90;;;;;;5070883;28;20452;-82
2022/05/04 06:40:52;;;;;;;735.17;69.78;;;3.80;99.90;;;;;;5055450;28;20743;-81
2022/05/04 06:43:19;;;;;;;704.22;56.25;;;3.90;99.90;;;;;;5089199;28;20380;-81
2022/05/04 06:45:47;;;;;;;274.52;23.90;;;3.90;99.90;;;;;;5090672;28;20862;-81
2022/05/04 06:48:14;;;;;;;106.55;7.97;;;4.00;99.90;;;;;;5069557;28;20791;-81
2022/05/04 06:50:42;;;;;;;318.80;42.03;;;4.10;99.90;;;;;;5054873;28;20400;-82
2022/05/04 06:53:09;;;;;;;251.52;18.08;;;4.00;99.90;;;;;;5066973;28;20391;-82
2022/05/04 06:55:37;;;;;;;558.08;38.40;;;4.20;99.90;;;;;;5050934;28;20878;-82
2022/05/04 06:58:04;;;;;;;303.00;20.10;;;4.30;99.90;;;;;;5070205;28;20459;-82
2022/05/04 07:00:32;;;;;;;1001.30;69.17;;;4.20;99.90;;;;;;5048265;28;20405;-82
2022/05/04 07:02:59;;;;;;;506.38;52.15;;;4.30;99.90;;;;;;5043829;28;20378;-81
2022/05/04 07:05:27;;;;;;;573.50;51.45;;;4.30;99.90;;;;;;5063225;28;20390;-81
2022/05/04 07:07:55;;;;;;;328.52;23.65;;;4.30;99.90;;;;;;5049780;28;20391;-81
2022/05/04 07:10:22;;;;;;;110.38;6.50;;;4.30;99.90;;;;;;5051104;28;20396;-82
2022/05/04 07:12:50;;;;;;;977.08;72.50;;;4.30;99.90;;;;;;5070895;28;20413;-82
2022/05/04 07:15:17;;;;;;;1066.10;116.15;;;4.40;99.90;;;;;;5071086;28;20393;-81
2022/05/04 07:17:45;;;;;;;271.17;21.47;;;4.50;99.90;;;;;;5060042;28;20431;-81
2022/05/04 07:20:13;;;;;;;422.38;31.08;;;4.60;99.90;;;;;;5051274;28;20416;-81
2022/05/04 07:22:40;;;;;;;823.50;60.35;;;4.70;99.90;;;;;;5051113;28;20438;-83
2022/05/04 07:25:08;;;;;;;590.55;41.17;;;4.80;99.90;;;;;;5050079;28;20420;-81
2022/05/04 07:27:36;;;;;;;620.50;45.87;;;4.80;99.90;;;;;;5051109;28;20384;-80
2022/05/04 07:30:04;;;;;;;460.83;41.42;;;4.80;99.90;;;;;;5064801;28;20480;-82
2022/05/04 07:32:32;;;;;;;347.52;38.70;;;4.80;99.90;;;;;;5070511;28;20394;-81
2022/05/04 07:35:00;;;;;;;607.25;73.18;;;5.00;99.30;;;;;;5070901;28;20398;-81
2022/05/04 07:37:28;;;;;;;169.17;13.50;;;5.10;99.90;;;;;;5070159;28;20444;-81
2022/05/04 07:42:41;;;;;;;97.00;11.10;;;5.30;99.70;;;;;;5059654;28;20446;-81
2022/05/04 07:45:11;;;;;;;231.98;21.35;;;5.20;98.10;;;;;;5051149;28;20434;-81
2022/05/04 07:47:39;;;;;;;920.47;71.07;;;5.30;97.80;;;;;;5057730;28;20402;-81
2022/05/04 07:50:09;;;;;;;717.10;55.97;;;5.20;96.20;;;;;;5071102;28;20782;-81
2022/05/04 07:52:36;;;;;;;957.55;65.47;;;5.20;97.20;;;;;;5071041;28;20485;-81
2022/05/04 07:55:05;;;;;;;523.22;62.95;;;5.20;96.60;;;;;;5070988;28;20827;-81
2022/05/04 07:57:32;;;;;;;1113.40;95.05;;;5.30;98.00;;;;;;5069476;28;20409;-81
2022/05/04 08:05:40;;;;;;;936.43;69.77;;;5.70;99.20;;;;;;5070878;28;20401;-81
2022/05/04 08:08:09;;;;;;;304.27;33.42;;;5.60;96.80;;;;;;5052637;28;20868;-81
2022/05/04 08:10:37;;;;;;;809.50;72.47;;;5.50;96.20;;;;;;5069503;28;20432;-81
2022/05/04 08:13:04;;;;;;;351.17;32.65;;;5.50;96.00;;;;;;5052771;28;20394;-81
2022/05/04 08:15:32;;;;;;;157.15;10.77;;;5.60;97.90;;;;;;5070794;28;20390;-81
2022/05/04 08:18:01;;;;;;;229.38;29.80;;;5.80;97.70;;;;;;5070828;28;20405;-81
2022/05/04 08:20:29;;;;;;;516.95;44.33;;;5.70;96.70;;;;;;5070757;28;20396;-81
2022/05/04 08:22:58;;;;;;;455.70;44.90;;;5.80;96.70;;;;;;5070764;28;20779;-81
2022/05/04 08:25:25;;;;;;;248.20;21.77;;;5.90;96.20;;;;;;5069266;28;20389;-82
2022/05/04 08:27:53;;;;;;;358.95;24.83;;;5.80;96.20;;;;;;5070773;28;20830;-82
2022/05/04 08:30:21;;;;;;;601.72;47.88;;;6.00;97.50;;;;;;5069291;28;20382;-81
2022/05/04 08:32:49;;;;;;;244.00;25.05;;;6.10;94.10;;;;;;5054486;28;20396;-82
2022/05/04 08:35:17;;;;;;;766.33;58.25;;;6.20;95.80;;;;;;5072955;28;20415;-81
2022/05/04 08:37:46;;;;;;;321.80;26.95;;;6.50;94.60;;;;;;5074340;28;20894;-81
2022/05/04 08:40:14;;;;;;;317.75;35.25;;;6.30;95.10;;;;;;5072948;28;20382;-81
2022/05/04 08:42:44;;;;;;;353.33;22.85;;;6.20;95.50;;;;;;5074302;28;20440;-81
2022/05/04 08:45:14;;;;;;;626.40;52.70;;;6.30;96.40;;;;;;5072883;28;20386;-81
2022/05/04 08:47:45;;;;;;;1196.82;100.70;;;6.20;94.40;;;;;;5073984;28;20486;-81
2022/05/04 08:50:21;;;;;;;369.85;35.92;;;6.00;94.80;;;;;;5055864;28;20401;-82
2022/05/04 08:52:53;;;;;;;191.27;20.40;;;6.10;95.00;;;;;;5093909;28;20388;-81
2022/05/04 08:55:23;;;;;;;1171.22;89.40;;;6.20;96.90;;;;;;5075800;28;20388;-81
2022/05/04 08:57:52;;;;;;;709.72;66.05;;;6.30;95.50;;;;;;5075769;28;20767;-81
2022/05/04 09:00:20;;;;;;;1168.00;89.45;;;6.40;96.10;;;;;;5093867;28;20479;-81
2022/05/04 09:02:47;;;;;;;320.90;31.48;;;6.90;95.30;;;;;;5093672;28;20438;-80
2022/05/04 09:05:24;;;;;;;519.65;39.20;;;6.90;95.70;;;;;;5092709;28;20415;-81
2022/05/04 09:07:57;;;;;;;226.57;28.20;;;6.90;94.30;;;;;;5075919;28;20458;-81
2022/05/04 09:10:34;;;;;;;551.40;54.42;;;6.70;93.70;;;;;;5075756;28;20476;-81
2022/05/04 09:13:03;;;;;;;478.10;52.30;;;6.80;93.30;;;;;;5059009;28;20518;-81
2022/05/04 09:15:33;;;;;;;328.33;29.93;;;6.80;93.50;;;;;;5072363;28;20410;-81
2022/05/04 09:18:09;;;;;;;392.75;30.98;;;6.70;93.80;;;;;;5073618;28;20456;-81
2022/05/04 09:20:52;;;;;;;131.68;25.77;;;6.50;93.40;;;;;;5073650;28;20436;-81
2022/05/04 09:23:28;;;;;;;152.00;17.05;;;6.40;93.30;;;;;;5073572;28;20381;-81
2022/05/04 09:26:00;;;;;;;702.78;54.58;;;6.40;94.00;;;;;;5054953;28;20395;-81
2022/05/04 09:28:29;;;;;;;1378.13;123.57;;;6.60;94.20;;;;;;5073378;28;20933;-81
2022/05/04 09:31:05;;;;;;;206.47;15.40;;;6.80;92.70;;;;;;5072110;28;20879;-81
2022/05/04 09:33:36;;;;;;;41.70;2.80;;;6.90;92.90;;;;;;5073317;28;20883;-81
2022/05/04 09:36:04;;;;;;;1474.07;85.55;;;6.90;93.80;;;;;;5073374;28;20401;-81
2022/05/04 09:46:58;;;;;;;405.17;48.40;;;6.80;91.90;;;;;;5072953;28;20875;-81
2022/05/04 09:49:33;;;;;;;1206.90;78.10;;;6.80;92.50;;;;;;5073047;28;20460;-81
2022/05/04 09:52:04;;;;;;;327.80;24.87;;;6.80;93.30;;;;;;5073337;28;20393;-81
2022/05/04 09:54:32;;;;;;;272.35;28.02;;;6.80;94.50;;;;;;5072874;28;20386;-81
2022/05/04 09:57:04;;;;;;;170.43;19.37;;;6.80;94.90;;;;;;5054948;28;20398;-81
2022/05/04 09:59:34;;;;;;;773.47;65.55;;;6.80;93.70;;;;;;5072909;28;20443;-81
2022/05/04 10:02:03;;;;;;;190.23;14.85;;;6.90;94.40;;;;;;5072790;28;20389;-81
2022/05/04 10:04:34;;;;;;;219.75;13.65;;;7.00;94.50;;;;;;5072944;28;20382;-82
2022/05/04 10:07:09;;;;;;;265.27;27.55;;;7.00;93.00;;;;;;5072574;28;20389;-81
2022/05/04 10:09:37;;;;;;;327.02;30.00;;;7.20;92.40;;;;;;5071240;28;20382;-81
2022/05/04 10:12:08;;;;;;;718.20;55.35;;;7.20;93.00;;;;;;5071795;28;21562;-81
2022/05/04 10:14:36;;;;;;;1259.18;128.32;;;7.20;92.20;;;;;;5072518;28;20390;-81
2022/05/04 10:17:20;;;;;;;549.88;46.67;;;7.10;92.70;;;;;;5054180;28;20471;-81
2022/05/04 10:20:06;;;;;;;110.97;11.53;;;7.00;92.70;;;;;;5072491;28;20382;-81
2022/05/04 10:22:47;;;;;;;329.58;29.02;;;7.00;93.50;;;;;;5071109;28;20421;-81
2022/05/04 10:25:17;;;;;;;1020.17;92.63;;;6.90;92.40;;;;;;5072637;28;20477;-81
2022/05/04 10:27:48;;;;;;;344.25;26.65;;;6.90;92.80;;;;;;5070985;28;20430;-81
2022/05/04 10:30:34;;;;;;;798.90;58.88;;;7.00;92.80;;;;;;5072250;28;20443;-81
2022/05/04 10:33:09;;;;;;;304.30;19.73;;;7.40;92.00;;;;;;5072206;28;20382;-81
2022/05/04 10:35:42;;;;;;;79.50;11.83;;;7.80;93.20;;;;;;5070596;28;20390;-81
2022/05/04 10:38:25;;;;;;;597.38;39.58;;;7.80;91.80;;;;;;5070628;28;20402;-81
2022/05/04 10:41:02;;;;;;;1999.90;136.60;;;8.30;92.30;;;;;;5037408;28;20398;-82
2022/05/04 10:43:34;;;;;;;1007.03;71.70;;;8.20;87.60;;;;;;5065042;28;20395;-83
2022/05/04 10:46:09;;;;;;;750.65;58.90;;;8.40;91.90;;;;;;5046252;28;20386;-82
2022/05/04 10:48:49;;;;;;;287.88;23.40;;;8.50;87.70;;;;;;5048014;28;20397;-82
2022/05/04 10:51:26;;;;;;;54.90;3.80;;;8.40;90.10;;;;;;5050854;28;20402;-82
2022/05/04 10:54:09;;;;;;;47.10;3.30;;;8.50;89.20;;;;;;5042867;28;20394;-82
2022/05/04 10:56:41;;;;;;;1001.50;83.40;;;8.30;90.20;;;;;;5065516;28;20384;-82
2022/05/04 10:59:09;;;;;;;268.50;43.30;;;8.20;88.50;;;;;;5051397;28;20757;-82
2022/05/04 11:01:40;;;;;;;1036.45;58.67;;;8.10;90.00;;;;;;5050326;28;20936;-82
2022/05/04 11:04:11;;;;;;;279.00;24.90;;;8.10;87.40;;;;;;5051596;28;20384;-82
2022/05/04 11:06:52;;;;;;;682.50;51.33;;;8.00;89.60;;;;;;5051700;28;20398;-81
2022/05/04 11:09:24;;;;;;;11.43;1.45;;;7.90;89.30;;;;;;5066037;28;20392;-80
2022/05/04 11:11:54;;;;;;;338.33;33.67;;;7.80;89.20;;;;;;5043226;28;20386;-82
2022/05/04 11:14:23;;;;;;;491.90;40.53;;;7.80;88.60;;;;;;5043305;28;20733;-81
2022/05/04 11:16:56;;;;;;;245.65;30.83;;;7.80;89.60;;;;;;5060495;28;20391;-82
2022/05/04 11:19:26;;;;;;;335.85;29.13;;;7.80;90.90;;;;;;5058816;28;20389;-82
2022/05/04 11:21:56;;;;;;;156.15;7.65;;;7.80;88.00;;;;;;5051056;28;20454;-81
2022/05/04 11:24:27;;;;;;;103.57;7.90;;;7.80;90.30;;;;;;5050388;28;20777;-82
2022/05/04 11:26:55;;;;;;;420.90;39.22;;;7.70;90.20;;;;;;5037036;28;20438;-82
2022/05/04 11:29:28;;;;;;;18.00;1.17;;;8.10;92.60;;;;;;5055796;28;20399;-83
2022/05/04 11:31:58;;;;;;;520.87;37.07;;;8.40;90.60;;;;;;5044339;28;20389;-82
2022/05/04 11:34:30;;;;;;;21.27;1.75;;;8.40;89.00;;;;;;5030705;28;20458;-82
2022/05/04 11:37:03;;;;;;;636.92;89.35;;;8.20;90.00;;;;;;5046299;28;20391;-83
2022/05/04 11:39:31;;;;;;;641.47;48.58;;;8.10;89.80;;;;;;5051177;28;20791;-83
2022/05/04 11:42:00;;;;;;;48.00;10.35;;;8.30;88.70;;;;;;5051272;28;20386;-83
2022/05/04 11:44:29;;;;;;;400.55;38.72;;;8.40;90.50;;;;;;5066322;28;20711;-83
2022/05/04 11:46:59;;;;;;;415.02;47.00;;;8.50;90.70;;;;;;5066351;28;20388;-82
2022/05/04 11:49:28;;;;;;;856.72;65.03;;;8.50;90.40;;;;;;5049718;28;20478;-82
2022/05/04 11:51:58;;;;;;;396.63;31.90;;;8.30;90.90;;;;;;5051045;28;20422;-81
2022/05/04 11:54:26;;;;;;;506.10;49.93;;;8.20;89.70;;;;;;5052491;28;20897;-82
2022/05/04 11:56:54;;;;;;;389.40;27.50;;;8.20;88.80;;;;;;5051863;28;20856;-82
2022/05/04 11:59:30;;;;;;;9.85;0.80;;;8.30;90.70;;;;;;5050918;28;20399;-82
2022/05/04 12:02:02;;;;;;;615.90;43.10;;;8.60;88.20;;;;;;5049496;28;20388;-81
2022/05/04 12:04:30;;;;;;;113.88;13.40;;;8.80;88.20;;;;;;5048911;28;20411;-82
2022/05/04 12:06:59;;;;;;;227.82;33.90;;;8.60;88.70;;;;;;5051981;28;20383;-84
2022/05/04 12:09:27;;;;;;;250.32;28.38;;;8.50;89.40;;;;;;5053871;28;20449;-82
2022/05/04 12:11:55;;;;;;;2.40;0.40;;;8.40;89.90;;;;;;5055056;28;20399;-82
2022/05/04 12:18:06;;;;;;;283.98;15.25;;;8.50;90.10;;;;;;5054384;28;20404;-81
2022/05/04 12:20:34;;;;;;;461.52;40.17;;;9.10;91.10;;;;;;5054613;28;20445;-82
2022/05/04 12:23:04;;;;;;;512.00;34.97;;;9.30;85.40;;;;;;5054685;28;20388;-82
2022/05/04 12:25:31;;;;;;;38.80;2.53;;;9.40;86.50;;;;;;5053373;28;20820;-82
2022/05/04 12:28:00;;;;;;;231.90;17.67;;;9.50;82.10;;;;;;5070294;28;20445;-81
2022/05/04 12:33:14;;;;;;;207.95;22.75;;;9.50;81.50;;;;;;5058789;28;20487;-83
2022/05/04 12:35:42;;;;;;;757.40;58.67;;;9.70;82.00;;;;;;5054348;28;20387;-83
2022/05/04 12:38:16;;;;;;;574.88;40.90;;;9.80;80.80;;;;;;5054691;28;20411;-83
2022/05/04 12:40:44;;;;;;;89.95;7.45;;;9.70;80.90;;;;;;5035949;28;20406;-81
2022/05/04 12:43:20;;;;;;;98.20;16.20;;;9.70;84.60;;;;;;5064079;28;20391;-84
2022/05/04 12:45:48;;;;;;;142.90;14.80;;;9.80;83.00;;;;;;5042607;28;20756;-83
2022/05/04 12:48:15;;;;;;;343.02;32.20;;;9.90;82.00;;;;;;5047731;28;20496;-83
2022/05/04 12:50:43;;;;;;;904.50;62.67;;;10.30;85.30;;;;;;5056201;28;20399;-82
2022/05/04 12:53:10;;;;;;;395.00;34.67;;;10.40;81.20;;;;;;5056295;28;20723;-82
2022/05/04 12:58:23;;;;;;;254.90;28.80;;;10.00;80.00;;;;;;5050590;28;20486;-82
2022/05/04 13:00:51;;;;;;;13.93;1.30;;;9.90;77.40;;;;;;5039148;28;20391;-83
2022/05/04 13:03:18;;;;;;;1.95;0.50;;;10.10;77.70;;;;;;5050477;28;20829;-83
2022/05/04 13:05:46;;;;;;;107.75;19.35;;;10.20;78.00;;;;;;5053840;28;20474;-84
2022/05/04 13:08:13;;;;;;;143.18;17.75;;;10.40;80.40;;;;;;5053934;28;20537;-83
2022/05/04 13:10:41;;;;;;;99.32;12.88;;;10.30;78.00;;;;;;5053743;28;20808;-83
2022/05/04 13:13:09;;;;;;;171.77;14.20;;;10.10;78.00;;;;;;5053681;28;20406;-82
2022/05/04 13:15:37;;;;;;;0.88;0.32;;;9.80;74.60;;;;;;5053629;28;20392;-84
2022/05/04 13:18:05;;;;;;;49.45;4.70;;;9.70;78.10;;;;;;5053613;28;20403;-83
2022/05/04 13:20:32;;;;;;;8.57;0.70;;;9.70;81.20;;;;;;5053803;28;20418;-83
2022/05/04 13:23:00;;;;;;;1324.43;111.15;;;9.50;78.10;;;;;;5069349;28;20753;-83